Wautoma, WI (54982)

3:19 PM CST on December 03, 2016 (GMT -0600)
Richford | | Change Station
Active Advisory: Winter Weather Advisory

Elev 892 ft 44.03 °N, 89.39 °W | Updated 8 minutes ago

Overcast
Overcast
29.7 °F
Feels Like 30 °F
N
0.0
Wind Variable Wind from West
Gusts 1.0 mph

Today
High -- | Low -- °F
--% Chance of Precip.
Yesterday
High -- | Low -- °F
Precip. -- in
Pressure 30.38 in
Visibility 10.0 miles
Clouds Overcast 2600 ft
Windchill 30 °F
Dew Point 22 °F
Humidity 73%
Rainfall 0.00 in
Snow Depth Not available.
7:14 AM 4:19 PM
Waxing Crescent, 17% visible
METAR KY50 032056Z AUTO 29005KT 10SM OVC026 M01/M06 A3029 RMK AO2 SLP286 6//// T10061056 50003
Pressure 30.38 in
Visibility 10.0 miles
Clouds Overcast 2600 ft
Windchill 30 °F
Dew Point 22 °F
Humidity 73%
Rainfall 0.00 in
Snow Depth Not available.
7:14 AM 4:19 PM
Waxing Crescent, 17% visible
METAR KY50 032056Z AUTO 29005KT 10SM OVC026 M01/M06 A3029 RMK AO2 SLP286 6//// T10061056 50003

10-Day Weather Forecast

Almanac

Astronomy

Dec. 03, 2016 Rise Set
Actual Time
Civil Twilight
Nautical Twilight
Astronomical Twilight
Moon
Length of Visible Light
Length of Day
Tomorrow will be .
, % of the Moon is Illuminated

Today's Extremes

State Highs State Lows

Community

WunderPhotos

Upload Photos

1,955,481 photos uploaded!

WunderBlog® & News

Nearby

Air Quality

  Air Quality AQ Index Pollutant
Not available.

Snow Depth

Station Depth Elevation

Earthquake Activity

City Distance Mag. Time & Date
Minimum magnitude displayed is 2.5.

Coastal Water Temperatures

Place Temperature

Stations

Nearby Weather Stations

Station Location Temp. Windchill Dew Point Humidity Wind Precip. Elev Updated Type
                   

Watches & Warnings

Winter Weather Advisory
Issued: 2:36 PM CST Dec. 3, 2016 – National Weather Service

... Winter Weather Advisory in effect from 6 am to 6 PM CST
Sunday...

The National Weather Service in Green Bay has issued a Winter
Weather Advisory for snow... which is in effect from 6 am to 6 PM
CST Sunday.

* Snow will arrive early Sunday morning and continue through late
Sunday afternoon.

* 2 to 4 inches of accumulation can be expected.

* This snow will lead to slippery and snow covered roadways, and
difficult traveling conditions. Air travel delays are also
possible.

Precautionary/preparedness actions...

A Winter Weather Advisory for snow means that periods of snow
will cause some travel difficulties. Be prepared for snow covered
roads and limited visibilities... and use caution while driving.
The latest Wisconsin Road conditions can be obtained by calling
511.